Time;durP1;ratioP1;P1;durP2;ratioP2;P2;SDS_P1;SDS_P2;PMS_P1;PMS_P2;Temp;Humidity;BMP_temperature;BMP_pressure;BME280_temperature;BME280_humidity;BME280_pressure;Samples;Min_cycle;Max_cycle;Signal;HPM_P1;HPM_P2
2022/10/26 00:00:01;;;;;;;0.70;0.57;;;13.50;99.90;;;;;;5074266;28;20431;-69
2022/10/26 00:02:26;;;;;;;0.40;0.40;;;13.50;99.90;;;;;;5074409;28;20172;-71
2022/10/26 00:04:52;;;;;;;0.40;0.40;;;13.50;99.90;;;;;;5074373;28;20207;-69
2022/10/26 00:07:18;;;;;;;0.30;0.30;;;13.50;99.90;;;;;;5074781;28;20601;-69
2022/10/26 00:09:43;;;;;;;0.30;0.30;;;13.40;99.90;;;;;;5073690;28;20189;-71
2022/10/26 00:12:09;;;;;;;0.57;0.50;;;13.30;99.90;;;;;;5074642;28;20177;-70
2022/10/26 00:14:35;;;;;;;0.50;0.50;;;13.30;99.90;;;;;;5074375;28;20165;-69
2022/10/26 00:17:00;;;;;;;0.33;0.33;;;13.30;99.90;;;;;;5074388;28;20214;-68
2022/10/26 00:19:26;;;;;;;0.50;0.50;;;13.40;99.90;;;;;;5073939;28;20193;-69
2022/10/26 00:21:52;;;;;;;0.40;0.40;;;13.40;99.90;;;;;;5074304;28;20180;-68
2022/10/26 00:24:18;;;;;;;0.40;0.40;;;13.30;99.90;;;;;;5074097;28;20404;-71
2022/10/26 00:26:43;;;;;;;0.40;0.40;;;13.20;99.90;;;;;;5073996;28;20191;-71
2022/10/26 00:29:11;;;;;;;0.50;0.50;;;13.10;99.90;;;;;;5073755;28;20242;-70
2022/10/26 00:31:38;;;;;;;0.60;0.60;;;13.10;99.90;;;;;;5074051;28;20204;-70
2022/10/26 00:34:04;;;;;;;0.83;0.50;;;13.10;99.90;;;;;;5074036;28;20396;-71
2022/10/26 00:36:30;;;;;;;0.30;0.30;;;;;;;;;;5073837;28;20419;-69
2022/10/26 00:38:56;;;;;;;0.50;0.50;;;13.00;99.90;;;;;;5073595;28;20427;-70
2022/10/26 00:41:28;;;;;;;1.07;0.60;;;12.90;99.90;;;;;;5073834;28;20426;-70
2022/10/26 00:43:54;;;;;;;0.50;0.50;;;12.90;99.90;;;;;;5073918;28;20395;-71
2022/10/26 00:46:31;;;;;;;3.83;1.17;;;12.80;99.90;;;;;;5073865;28;20411;-71
2022/10/26 00:49:19;;;;;;;0.50;0.50;;;12.60;99.90;;;;;;5073469;28;20430;-70
2022/10/26 00:51:52;;;;;;;0.40;0.40;;;12.50;99.90;;;;;;5074033;28;20465;-71
2022/10/26 00:54:19;;;;;;;0.60;0.60;;;12.40;99.90;;;;;;5073758;28;20941;-68
2022/10/26 00:56:50;;;;;;;0.80;0.80;;;12.40;99.90;;;;;;5073747;28;20480;-70
2022/10/26 00:59:17;;;;;;;0.50;0.50;;;12.30;99.90;;;;;;5073536;28;20470;-70
2022/10/26 01:01:45;;;;;;;0.40;0.40;;;12.30;99.90;;;;;;5073569;28;20472;-68
2022/10/26 01:04:12;;;;;;;0.40;0.37;;;12.30;99.90;;;;;;5073739;28;20408;-69
2022/10/26 01:06:40;;;;;;;0.43;0.43;;;12.30;99.90;;;;;;5073621;28;20435;-69
2022/10/26 01:09:06;;;;;;;0.40;0.40;;;12.40;99.90;;;;;;5073359;28;20441;-70
2022/10/26 01:11:32;;;;;;;0.60;0.60;;;12.40;99.90;;;;;;5073269;28;20440;-67
2022/10/26 01:14:01;;;;;;;0.80;0.80;;;12.40;99.90;;;;;;5073637;28;20175;-70
2022/10/26 01:16:54;;;;;;;0.40;0.40;;;12.60;99.90;;;;;;5073438;28;20742;-70
2022/10/26 01:19:35;;;;;;;0.50;0.50;;;12.60;99.90;;;;;;5073193;28;20786;-71
2022/10/26 01:22:09;;;;;;;0.40;0.40;;;12.70;99.90;;;;;;5075170;28;20399;-71
2022/10/26 01:24:43;;;;;;;2.00;0.70;;;12.80;99.90;;;;;;5077562;28;20394;-68
2022/10/26 01:27:18;;;;;;;0.40;0.40;;;12.80;99.90;;;;;;5077433;28;20526;-71
2022/10/26 01:30:09;;;;;;;0.63;0.63;;;12.80;99.90;;;;;;5077135;28;20419;-69
2022/10/26 01:32:45;;;;;;;0.30;0.30;;;12.80;99.90;;;;;;5077761;28;20735;-68
2022/10/26 01:35:32;;;;;;;0.60;0.60;;;12.70;99.90;;;;;;5077379;28;20399;-69
2022/10/26 01:38:07;;;;;;;0.47;0.47;;;12.70;99.90;;;;;;5077619;28;20404;-70
2022/10/26 01:40:44;;;;;;;0.30;0.30;;;12.70;99.90;;;;;;5076911;28;20439;-70
2022/10/26 01:43:12;;;;;;;0.30;0.30;;;12.60;99.90;;;;;;5077431;28;20405;-69
2022/10/26 01:45:43;;;;;;;0.70;0.70;;;12.60;99.90;;;;;;5077151;28;20414;-71
2022/10/26 01:48:11;;;;;;;0.87;0.87;;;12.60;99.90;;;;;;5077157;28;20410;-67
2022/10/26 01:50:39;;;;;;;0.37;0.37;;;12.50;99.90;;;;;;5076996;28;20450;-69
2022/10/26 01:53:05;;;;;;;0.73;0.73;;;12.50;99.90;;;;;;5076898;28;20759;-72
2022/10/26 01:55:50;;;;;;;0.70;0.67;;;12.60;99.90;;;;;;5077121;28;20403;-70
2022/10/26 01:58:39;;;;;;;0.57;0.50;;;12.80;99.90;;;;;;5076748;28;20180;-69
2022/10/26 02:01:20;;;;;;;0.40;0.40;;;12.80;99.90;;;;;;5076822;28;20400;-70
2022/10/26 02:04:09;;;;;;;0.40;0.40;;;12.90;99.90;;;;;;5077393;28;20405;-67
2022/10/26 02:06:50;;;;;;;0.40;0.40;;;12.90;99.90;;;;;;5076752;28;20802;-68
2022/10/26 02:09:48;;;;;;;0.60;0.60;;;12.90;99.90;;;;;;5076577;28;20489;-68
2022/10/26 02:12:52;;;;;;;1.27;0.80;;;12.90;99.90;;;;;;5076832;28;20408;-71
2022/10/26 02:15:22;;;;;;;0.60;0.60;;;12.80;99.90;;;;;;5025527;28;20485;-68
2022/10/26 02:18:02;;;;;;;1.00;0.90;;;13.00;99.90;;;;;;5076620;28;20391;-70
2022/10/26 02:20:33;;;;;;;0.57;0.57;;;13.00;99.90;;;;;;5076228;28;20459;-68
2022/10/26 02:23:02;;;;;;;0.40;0.40;;;13.10;99.90;;;;;;5076437;28;20401;-70
2022/10/26 02:25:32;;;;;;;0.60;0.60;;;13.00;99.90;;;;;;5076411;28;20457;-70
2022/10/26 02:28:09;;;;;;;0.60;0.60;;;13.00;99.90;;;;;;5076520;28;20399;-68
2022/10/26 02:30:37;;;;;;;0.63;0.63;;;13.00;99.90;;;;;;5075888;28;20544;-70
2022/10/26 02:33:05;;;;;;;0.57;0.50;;;13.10;99.90;;;;;;5075762;28;20411;-71
2022/10/26 02:35:35;;;;;;;0.30;0.30;;;13.10;99.90;;;;;;5076117;28;20407;-68
2022/10/26 02:38:04;;;;;;;0.30;0.30;;;13.10;99.90;;;;;;5076204;28;20407;-69
2022/10/26 02:40:31;;;;;;;0.93;0.40;;;13.00;99.90;;;;;;5076068;28;20438;-69
2022/10/26 02:43:04;;;;;;;1.43;1.33;;;13.00;99.90;;;;;;5076113;28;20414;-69
2022/10/26 02:45:34;;;;;;;0.73;0.67;;;13.00;99.90;;;;;;5076252;28;20462;-70
2022/10/26 02:48:00;;;;;;;6.90;1.13;;;13.00;99.90;;;;;;5076163;28;20408;-69
2022/10/26 02:50:33;;;;;;;0.30;0.30;;;12.90;99.90;;;;;;5075857;28;20458;-70
2022/10/26 02:53:10;;;;;;;0.40;0.40;;;12.90;99.90;;;;;;5076203;28;20626;-71
2022/10/26 02:55:45;;;;;;;0.40;0.40;;;12.90;99.90;;;;;;5075977;28;20406;-68
2022/10/26 02:58:25;;;;;;;0.40;0.40;;;12.90;99.90;;;;;;5076058;28;20418;-69
2022/10/26 03:00:51;;;;;;;0.87;0.67;;;12.90;99.90;;;;;;5075575;28;20410;-71
2022/10/26 03:03:18;;;;;;;0.50;0.50;;;12.90;99.90;;;;;;5075866;28;20408;-69
2022/10/26 03:05:44;;;;;;;0.30;0.30;;;13.00;99.90;;;;;;5075780;28;20417;-71
2022/10/26 03:08:10;;;;;;;0.30;0.30;;;13.00;99.90;;;;;;5075751;28;20477;-67
2022/10/26 03:10:43;;;;;;;0.50;0.50;;;13.10;99.90;;;;;;5075248;28;20213;-69
2022/10/26 03:13:11;;;;;;;0.40;0.40;;;13.00;99.90;;;;;;5075727;28;20193;-67
2022/10/26 03:15:37;;;;;;;0.30;0.30;;;13.00;99.90;;;;;;5075647;28;20900;-70
2022/10/26 03:18:03;;;;;;;0.40;0.40;;;13.10;99.90;;;;;;5075526;28;20399;-70
2022/10/26 03:20:29;;;;;;;0.70;0.70;;;12.90;99.90;;;;;;5075101;28;20197;-71
2022/10/26 03:22:55;;;;;;;1.40;0.93;;;12.80;99.90;;;;;;5075354;28;20892;-71
2022/10/26 03:25:22;;;;;;;0.60;0.50;;;12.80;99.90;;;;;;5075099;28;20211;-69
2022/10/26 03:27:59;;;;;;;0.40;0.40;;;12.80;99.90;;;;;;5075306;28;20413;-71
2022/10/26 03:30:25;;;;;;;0.60;0.60;;;12.80;99.90;;;;;;5075071;28;20450;-70
2022/10/26 03:32:51;;;;;;;0.30;0.30;;;12.80;99.90;;;;;;5075045;28;20423;-70
2022/10/26 03:35:17;;;;;;;0.40;0.40;;;12.90;99.90;;;;;;5075277;28;20883;-69
2022/10/26 03:37:42;;;;;;;0.87;0.87;;;12.90;99.90;;;;;;5074974;28;20408;-70
2022/10/26 03:40:09;;;;;;;0.63;0.63;;;12.80;99.90;;;;;;5074763;28;20193;-70
2022/10/26 03:42:38;;;;;;;0.50;0.50;;;12.80;99.90;;;;;;5075091;28;20179;-69
2022/10/26 03:45:04;;;;;;;0.50;0.50;;;12.90;99.90;;;;;;5074168;28;20490;-69
2022/10/26 03:47:30;;;;;;;1.63;1.53;;;12.90;99.90;;;;;;5074859;28;20910;-70
2022/10/26 03:49:56;;;;;;;0.77;0.77;;;12.90;99.90;;;;;;5073118;28;20458;-70
2022/10/26 03:52:23;;;;;;;0.40;0.40;;;12.90;99.90;;;;;;5074870;28;20172;-68
2022/10/26 03:54:49;;;;;;;0.33;0.33;;;13.00;99.90;;;;;;5074699;28;20193;-71
2022/10/26 03:57:15;;;;;;;0.40;0.40;;;13.00;99.90;;;;;;5074658;28;20402;-68
2022/10/26 03:59:41;;;;;;;0.70;0.70;;;13.00;99.90;;;;;;5074341;28;20912;-71
2022/10/26 04:02:06;;;;;;;0.60;0.60;;;13.00;99.90;;;;;;5074705;28;20403;-69
2022/10/26 04:04:32;;;;;;;0.40;0.40;;;13.00;99.90;;;;;;5074629;28;20181;-71
2022/10/26 04:06:58;;;;;;;0.40;0.40;;;13.00;99.90;;;;;;5074417;28;20169;-70
2022/10/26 04:09:23;;;;;;;0.40;0.40;;;13.00;99.90;;;;;;5074094;28;20536;-71
2022/10/26 04:11:49;;;;;;;0.77;0.77;;;13.00;99.90;;;;;;5074310;28;20208;-68
2022/10/26 04:14:15;;;;;;;1.47;0.80;;;12.90;99.90;;;;;;5074426;28;20201;-70
2022/10/26 04:16:40;;;;;;;0.30;0.30;;;12.90;99.90;;;;;;5074475;28;20623;-68
2022/10/26 04:19:06;;;;;;;0.80;0.80;;;12.80;99.90;;;;;;5074025;28;20193;-70
2022/10/26 04:21:32;;;;;;;1.10;1.10;;;12.80;99.90;;;;;;5074138;28;20169;-68
2022/10/26 04:23:58;;;;;;;0.40;0.40;;;12.90;99.90;;;;;;5074015;28;20176;-68
2022/10/26 04:26:23;;;;;;;0.40;0.40;;;12.80;99.90;;;;;;5073928;28;20197;-71
2022/10/26 04:28:49;;;;;;;0.50;0.50;;;12.90;99.90;;;;;;5073895;28;20197;-70
2022/10/26 04:31:16;;;;;;;0.90;0.80;;;12.80;99.90;;;;;;5073952;28;20475;-69
2022/10/26 04:33:41;;;;;;;0.50;0.50;;;12.80;99.90;;;;;;5074000;28;20461;-68
2022/10/26 04:36:07;;;;;;;0.40;0.40;;;12.70;99.90;;;;;;5074105;28;20646;-70
2022/10/26 04:38:33;;;;;;;0.60;0.60;;;12.70;99.90;;;;;;5074140;28;20182;-71
2022/10/26 04:40:58;;;;;;;0.50;0.50;;;12.70;99.90;;;;;;5073759;28;20414;-71
2022/10/26 04:43:24;;;;;;;0.57;0.57;;;12.70;99.90;;;;;;5073877;28;20175;-69
2022/10/26 04:45:54;;;;;;;1.13;0.57;;;12.80;99.90;;;;;;5073934;28;20533;-68
2022/10/26 04:48:20;;;;;;;0.40;0.40;;;13.00;99.90;;;;;;5074355;28;20181;-72
2022/10/26 04:50:46;;;;;;;0.40;0.40;;;12.90;99.90;;;;;;5073475;28;20447;-70
2022/10/26 04:53:12;;;;;;;1.23;1.13;;;12.90;99.90;;;;;;5073727;28;20184;-69
2022/10/26 04:55:37;;;;;;;0.50;0.50;;;12.90;99.90;;;;;;5073701;28;20885;-70
2022/10/26 04:58:04;;;;;;;0.60;0.60;;;12.90;99.90;;;;;;5073780;28;20173;-71
2022/10/26 05:00:31;;;;;;;0.83;0.60;;;13.00;99.90;;;;;;5073320;28;20200;-68
2022/10/26 05:03:05;;;;;;;0.97;0.67;;;12.90;99.90;;;;;;5073740;28;20415;-69
2022/10/26 05:05:33;;;;;;;0.83;0.83;;;12.90;99.90;;;;;;5073765;28;20473;-68
2022/10/26 05:07:59;;;;;;;0.90;0.40;;;12.90;99.90;;;;;;5073682;28;20468;-69
2022/10/26 05:10:27;;;;;;;0.80;0.50;;;12.90;99.90;;;;;;5073297;28;20455;-70
2022/10/26 05:12:54;;;;;;;0.30;0.30;;;12.80;99.90;;;;;;5073568;28;20416;-68
2022/10/26 05:15:20;;;;;;;0.40;0.40;;;12.70;99.90;;;;;;5073567;28;20754;-71
2022/10/26 05:17:46;;;;;;;0.80;0.80;;;12.70;99.90;;;;;;5073398;28;20404;-70
2022/10/26 05:20:13;;;;;;;1.23;1.13;;;12.70;99.90;;;;;;5073227;28;20451;-70
2022/10/26 05:22:41;;;;;;;0.60;0.60;;;12.70;99.90;;;;;;5073342;28;20413;-71
2022/10/26 05:25:07;;;;;;;0.67;0.67;;;12.70;99.90;;;;;;5073224;28;20491;-70
2022/10/26 05:27:33;;;;;;;1.23;1.23;;;12.70;99.90;;;;;;5073574;28;20824;-70
2022/10/26 05:29:58;;;;;;;0.70;0.70;;;12.60;99.90;;;;;;5073068;28;20471;-69
2022/10/26 05:32:27;;;;;;;0.63;0.63;;;12.50;99.90;;;;;;5073451;28;20171;-69
2022/10/26 05:34:53;;;;;;;0.60;0.60;;;12.50;99.90;;;;;;5073336;28;20248;-70
2022/10/26 05:37:19;;;;;;;1.50;1.50;;;12.50;99.90;;;;;;5073329;28;20870;-69
2022/10/26 05:39:44;;;;;;;0.40;0.40;;;12.50;99.90;;;;;;5073004;28;20689;-68
2022/10/26 05:42:10;;;;;;;0.97;0.97;;;;;;;;;;5073369;28;20536;-71
2022/10/26 05:44:36;;;;;;;1.03;0.97;;;12.50;99.90;;;;;;5073114;28;20259;-69
2022/10/26 05:47:01;;;;;;;1.03;0.93;;;12.50;99.90;;;;;;5073326;28;20459;-69
2022/10/26 05:49:27;;;;;;;0.50;0.50;;;12.60;99.90;;;;;;5072818;28;20689;-69
2022/10/26 05:51:53;;;;;;;0.70;0.70;;;;;;;;;;5073119;28;20572;-71
2022/10/26 05:54:19;;;;;;;3.90;2.30;;;12.80;99.90;;;;;;5073169;28;20177;-69
2022/10/26 05:56:45;;;;;;;0.77;0.77;;;12.80;99.90;;;;;;5073176;28;20403;-69
2022/10/26 05:59:13;;;;;;;0.60;0.60;;;12.80;99.90;;;;;;5072683;28;20280;-69
2022/10/26 06:02:27;;;;;;;1.93;1.80;;;12.80;99.90;;;;;;5072986;28;20408;-68
2022/10/26 06:04:56;;;;;;;2.20;1.13;;;12.80;99.90;;;;;;5051576;28;20424;-69
2022/10/26 06:07:22;;;;;;;1.23;1.00;;;12.80;99.90;;;;;;5073724;28;20403;-70
2022/10/26 06:09:48;;;;;;;0.90;0.83;;;12.70;99.90;;;;;;5076312;28;20789;-68
2022/10/26 06:12:14;;;;;;;0.30;0.30;;;12.60;99.90;;;;;;5076604;28;20406;-68
2022/10/26 06:14:41;;;;;;;1.53;1.43;;;12.50;99.90;;;;;;5076626;28;20459;-70
2022/10/26 06:17:45;;;;;;;2.20;2.10;;;12.40;99.90;;;;;;5076485;28;20412;-68
2022/10/26 06:20:28;;;;;;;1.17;1.07;;;12.40;99.90;;;;;;5076383;28;20816;-71
2022/10/26 06:23:14;;;;;;;0.50;0.50;;;12.50;99.90;;;;;;5076846;28;20404;-69
2022/10/26 06:25:56;;;;;;;0.73;0.67;;;12.40;99.90;;;;;;5076494;28;20425;-70
2022/10/26 06:28:32;;;;;;;0.50;0.50;;;12.10;99.90;;;;;;5075228;28;20928;-70
2022/10/26 06:30:58;;;;;;;0.30;0.30;;;12.30;99.90;;;;;;5076051;28;20809;-68
2022/10/26 06:33:25;;;;;;;1.33;1.23;;;12.30;99.90;;;;;;5076456;28;20553;-71
2022/10/26 06:35:55;;;;;;;1.17;1.07;;;12.40;99.90;;;;;;5076250;28;20230;-70
2022/10/26 06:38:22;;;;;;;0.60;0.60;;;12.80;99.90;;;;;;5076552;28;20821;-68
2022/10/26 06:40:51;;;;;;;0.50;0.50;;;12.60;99.90;;;;;;5075886;28;20403;-67
2022/10/26 06:43:26;;;;;;;0.40;0.40;;;12.60;99.90;;;;;;5076321;28;20454;-70
2022/10/26 06:46:17;;;;;;;0.50;0.50;;;12.70;99.90;;;;;;5076154;28;20904;-69
2022/10/26 06:49:09;;;;;;;0.63;0.63;;;12.70;99.90;;;;;;5076029;28;20537;-71
2022/10/26 06:51:59;;;;;;;0.70;0.70;;;12.80;99.90;;;;;;5076073;28;20818;-71
2022/10/26 06:54:50;;;;;;;1.57;1.47;;;12.80;99.90;;;;;;5025115;28;20834;-70
2022/10/26 06:57:18;;;;;;;0.73;0.60;;;12.80;99.90;;;;;;5075698;28;20410;-68
2022/10/26 06:59:47;;;;;;;0.63;0.63;;;12.90;99.90;;;;;;5075533;28;20441;-69
2022/10/26 07:02:13;;;;;;;0.50;0.50;;;13.00;99.90;;;;;;5075749;28;20388;-71
2022/10/26 07:04:42;;;;;;;0.40;0.30;;;12.90;99.90;;;;;;5075502;28;20406;-68
2022/10/26 07:07:25;;;;;;;0.80;0.80;;;13.00;99.90;;;;;;5075753;28;20415;-70
2022/10/26 07:09:51;;;;;;;1.73;1.63;;;13.20;99.90;;;;;;5075559;28;20916;-71
2022/10/26 07:12:16;;;;;;;1.13;0.93;;;13.30;99.90;;;;;;5075564;28;20404;-70
2022/10/26 07:14:42;;;;;;;1.47;1.30;;;13.40;99.90;;;;;;5075561;28;20532;-69
2022/10/26 07:17:08;;;;;;;0.30;0.30;;;13.30;99.90;;;;;;5075541;28;20177;-71
2022/10/26 07:19:34;;;;;;;0.50;0.50;;;13.30;99.90;;;;;;5074145;28;20212;-71
2022/10/26 07:22:00;;;;;;;1.87;1.53;;;13.40;99.90;;;;;;5075532;28;20507;-70
2022/10/26 07:24:26;;;;;;;0.57;0.57;;;;;;;;;;5075510;28;20177;-71
2022/10/26 07:26:56;;;;;;;0.70;0.70;;;13.60;99.90;;;;;;5075207;28;20423;-69
2022/10/26 07:29:23;;;;;;;1.77;1.10;;;13.70;99.90;;;;;;5074982;28;20518;-70
2022/10/26 07:31:49;;;;;;;1.53;1.00;;;13.70;99.90;;;;;;5075165;28;20534;-68
2022/10/26 07:34:15;;;;;;;1.13;1.10;;;13.90;99.90;;;;;;5075254;28;20403;-71
2022/10/26 07:36:40;;;;;;;2.27;2.00;;;14.20;99.90;;;;;;5075147;28;20414;-70
2022/10/26 07:39:06;;;;;;;1.03;1.03;;;15.10;99.90;;;;;;5074871;28;20673;-69
2022/10/26 07:41:32;;;;;;;0.70;0.53;;;15.70;99.90;;;;;;5074992;28;20581;-70
2022/10/26 07:43:58;;;;;;;0.97;0.97;;;16.00;99.90;;;;;;5075111;28;20264;-71
2022/10/26 07:46:23;;;;;;;1.33;1.23;;;16.80;99.90;;;;;;5074746;28;20408;-70
2022/10/26 07:48:49;;;;;;;1.07;0.97;;;18.10;99.90;;;;;;5074823;28;20228;-70
2022/10/26 07:51:15;;;;;;;3.33;0.93;;;19.00;99.50;;;;;;5074734;28;20519;-70
2022/10/26 07:53:41;;;;;;;0.63;0.63;;;19.20;98.20;;;;;;5074593;28;20184;-72
2022/10/26 07:56:08;;;;;;;0.60;0.60;;;19.10;97.80;;;;;;5074648;28;20423;-71
2022/10/26 07:58:35;;;;;;;1.13;1.03;;;19.80;97.10;;;;;;5074591;28;20200;-71
2022/10/26 08:01:08;;;;;;;0.60;0.60;;;20.90;95.50;;;;;;5074518;28;20411;-69
2022/10/26 08:03:34;;;;;;;1.37;1.27;;;22.10;92.70;;;;;;5074673;28;20412;-70
2022/10/26 08:06:00;;;;;;;0.70;0.70;;;23.10;90.90;;;;;;5074602;28;20419;-70
2022/10/26 08:08:26;;;;;;;1.93;1.83;;;24.60;96.30;;;;;;5074263;28;20183;-71
2022/10/26 08:10:51;;;;;;;0.73;0.73;;;24.70;84.60;;;;;;5074161;28;20952;-71
2022/10/26 08:13:17;;;;;;;0.40;0.40;;;25.30;81.90;;;;;;5074314;28;20180;-70
2022/10/26 08:15:43;;;;;;;0.40;0.40;;;25.90;80.80;;;;;;5074823;28;20414;-70
2022/10/26 08:18:09;;;;;;;0.43;0.43;;;26.60;76.10;;;;;;5074425;28;20507;-72
2022/10/26 08:20:35;;;;;;;0.70;0.60;;;27.00;73.20;;;;;;5073886;28;20431;-71
2022/10/26 08:23:02;;;;;;;0.40;0.40;;;27.40;70.30;;;;;;5074210;28;20184;-70
2022/10/26 08:25:28;;;;;;;0.43;0.43;;;27.60;69.60;;;;;;5074181;28;20428;-70
2022/10/26 08:27:54;;;;;;;0.43;0.40;;;28.00;68.80;;;;;;5074330;28;20755;-70
2022/10/26 08:30:20;;;;;;;0.90;0.77;;;28.50;65.50;;;;;;5072049;28;20463;-70
2022/10/26 08:32:45;;;;;;;0.30;0.30;;;28.80;63.80;;;;;;5073940;28;20204;-70
2022/10/26 08:35:11;;;;;;;0.50;0.50;;;28.60;63.40;;;;;;5073926;28;20184;-71
2022/10/26 08:37:36;;;;;;;0.53;0.53;;;27.70;64.10;;;;;;5073872;28;20176;-69
2022/10/26 08:40:03;;;;;;;1.03;1.03;;;26.60;66.10;;;;;;5073661;28;20278;-71
2022/10/26 08:42:39;;;;;;;0.50;0.50;;;25.20;69.00;;;;;;5073852;28;20533;-71
2022/10/26 08:45:30;;;;;;;0.73;0.60;;;24.10;72.60;;;;;;5073994;28;20494;-72
2022/10/26 08:48:02;;;;;;;1.63;0.40;;;23.20;75.80;;;;;;5073171;28;20438;-70
2022/10/26 08:50:43;;;;;;;0.53;0.47;;;22.50;78.60;;;;;;5073485;28;20452;-71
2022/10/26 08:53:42;;;;;;;0.53;0.53;;;22.20;82.20;;;;;;5073785;28;20461;-69
2022/10/26 08:56:23;;;;;;;0.30;0.30;;;22.20;82.70;;;;;;5073706;28;20496;-70
2022/10/26 08:59:07;;;;;;;0.60;0.60;;;22.20;82.70;;;;;;5073563;28;20783;-71
2022/10/26 09:01:33;;;;;;;0.50;0.50;;;22.50;84.00;;;;;;5073769;28;20425;-72
2022/10/26 09:04:01;;;;;;;0.87;0.60;;;23.20;83.30;;;;;;5073529;28;20378;-71
2022/10/26 09:06:53;;;;;;;0.50;0.50;;;24.00;81.50;;;;;;5073681;28;20407;-70
2022/10/26 09:09:22;;;;;;;0.70;0.70;;;24.90;78.70;;;;;;5073303;28;20446;-71
2022/10/26 09:12:08;;;;;;;0.60;0.60;;;25.30;76.90;;;;;;5073733;28;20463;-70
2022/10/26 09:15:06;;;;;;;0.40;0.40;;;25.40;76.00;;;;;;5073671;28;20487;-72
2022/10/26 09:18:04;;;;;;;0.50;0.50;;;25.00;77.30;;;;;;5064522;28;20481;-72
2022/10/26 09:20:57;;;;;;;0.60;0.60;;;24.40;78.90;;;;;;5073365;28;20574;-70
2022/10/26 09:23:38;;;;;;;0.70;0.50;;;23.60;79.80;;;;;;5073645;28;20408;-70
2022/10/26 09:26:12;;;;;;;0.77;0.70;;;23.30;83.10;;;;;;5073238;28;20508;-70
2022/10/26 09:28:40;;;;;;;0.50;0.40;;;24.00;84.50;;;;;;5073419;28;20754;-70
2022/10/26 09:31:12;;;;;;;0.50;0.50;;;25.00;80.30;;;;;;5073208;28;20455;-72
2022/10/26 09:33:39;;;;;;;0.30;0.30;;;25.90;75.70;;;;;;5073426;28;20974;-71
2022/10/26 09:36:27;;;;;;;0.30;0.30;;;26.40;74.40;;;;;;5073274;28;20408;-71
2022/10/26 09:39:03;;;;;;;0.40;0.40;;;26.00;75.40;;;;;;5073121;28;20436;-72
2022/10/26 09:41:40;;;;;;;0.50;0.50;;;25.50;79.50;;;;;;5073430;28;20467;-70
2022/10/26 09:44:33;;;;;;;1.60;0.77;;;25.40;80.10;;;;;;5077003;28;20415;-71
2022/10/26 09:47:08;;;;;;;0.73;0.50;;;25.80;79.40;;;;;;5077236;28;20403;-72
2022/10/26 09:49:51;;;;;;;0.50;0.50;;;26.70;78.40;;;;;;5076823;28;20435;-71
2022/10/26 09:52:17;;;;;;;0.50;0.50;;;28.10;70.00;;;;;;5077104;28;20912;-70
2022/10/26 09:54:43;;;;;;;0.70;0.70;;;29.30;67.30;;;;;;5076998;28;20404;-72
2022/10/26 09:57:12;;;;;;;0.43;0.43;;;30.50;58.40;;;;;;5077177;28;20170;-72
2022/10/26 09:59:39;;;;;;;0.40;0.40;;;30.50;58.90;;;;;;5076652;28;20428;-73
2022/10/26 10:02:31;;;;;;;0.50;0.47;;;30.70;56.80;;;;;;5076914;28;20408;-72
2022/10/26 10:04:56;;;;;;;0.43;0.40;;;30.20;60.30;;;;;;5076941;28;20399;-71
2022/10/26 10:07:22;;;;;;;0.40;0.40;;;28.90;60.90;;;;;;5076726;28;20746;-71
2022/10/26 10:10:15;;;;;;;0.83;0.83;;;28.90;60.00;;;;;;5076478;28;20242;-70
2022/10/26 10:12:41;;;;;;;1.43;0.67;;;28.80;58.10;;;;;;5073066;28;20205;-71
2022/10/26 10:15:16;;;;;;;0.37;0.37;;;28.10;59.00;;;;;;5076718;28;20774;-71
2022/10/26 10:17:50;;;;;;;0.50;0.50;;;27.40;59.60;;;;;;5076553;28;20174;-69
2022/10/26 10:20:26;;;;;;;1.40;1.00;;;27.00;61.50;;;;;;5076370;28;20423;-71
2022/10/26 10:22:57;;;;;;;0.70;0.60;;;26.80;62.40;;;;;;5076476;28;20492;-72
2022/10/26 10:25:33;;;;;;;1.37;0.67;;;26.60;62.70;;;;;;5076528;28;20402;-73
2022/10/26 10:27:59;;;;;;;0.40;0.40;;;26.90;88.10;;;;;;5076330;28;20407;-70
2022/10/26 10:30:34;;;;;;;0.30;0.30;;;26.70;66.70;;;;;;5076041;28;20440;-72
2022/10/26 10:33:11;;;;;;;0.50;0.50;;;26.70;62.90;;;;;;5076512;28;20169;-69
2022/10/26 10:35:45;;;;;;;0.57;0.57;;;26.60;63.00;;;;;;5076464;28;20403;-70
2022/10/26 10:38:20;;;;;;;1.13;0.60;;;26.60;64.50;;;;;;5076309;28;20490;-72
2022/10/26 10:40:57;;;;;;;0.47;0.47;;;26.30;63.30;;;;;;5075998;28;20385;-70
2022/10/26 10:43:24;;;;;;;0.40;0.40;;;25.90;65.80;;;;;;5076050;28;20407;-71
2022/10/26 10:45:52;;;;;;;0.73;0.73;;;25.50;71.00;;;;;;5076168;28;20410;-73
2022/10/26 10:48:28;;;;;;;0.50;0.40;;;24.60;82.70;;;;;;5076108;28;20389;-72
2022/10/26 10:50:54;;;;;;;0.40;0.40;;;24.70;70.40;;;;;;5075778;28;20419;-70
2022/10/26 10:53:28;;;;;;;1.27;0.83;;;24.50;79.30;;;;;;5075618;28;20453;-72
2022/10/26 10:55:57;;;;;;;0.70;0.67;;;24.30;76.20;;;;;;5075957;28;20169;-72
2022/10/26 10:58:47;;;;;;;0.40;0.40;;;24.20;91.60;;;;;;5075913;28;20761;-70
2022/10/26 11:01:19;;;;;;;0.37;0.37;;;24.00;72.20;;;;;;5075944;28;20727;-68
2022/10/26 11:04:10;;;;;;;0.47;0.47;;;23.70;77.20;;;;;;5075844;28;20465;-70
2022/10/26 11:06:38;;;;;;;0.77;0.77;;;23.40;80.20;;;;;;5075941;28;20370;-70
2022/10/26 11:09:12;;;;;;;0.87;0.87;;;23.20;80.10;;;;;;5075450;28;20428;-69
2022/10/26 11:11:53;;;;;;;0.43;0.43;;;22.90;76.90;;;;;;5075671;28;20456;-68
2022/10/26 11:14:24;;;;;;;0.40;0.40;;;22.60;77.20;;;;;;5075794;28;20372;-72
2022/10/26 11:17:20;;;;;;;0.63;0.50;;;22.30;80.40;;;;;;5075746;28;20398;-69
2022/10/26 11:19:53;;;;;;;0.50;0.50;;;22.10;78.20;;;;;;5071239;28;20448;-70
2022/10/26 11:22:34;;;;;;;0.70;0.70;;;22.20;79.80;;;;;;5075422;28;20426;-70
2022/10/26 11:25:10;;;;;;;0.40;0.40;;;22.20;80.80;;;;;;5075586;28;20416;-70
2022/10/26 11:27:48;;;;;;;0.50;0.50;;;22.20;76.50;;;;;;5075620;28;20913;-71
2022/10/26 11:30:27;;;;;;;0.37;0.37;;;22.10;77.50;;;;;;5074726;28;20968;-69
2022/10/26 11:33:04;;;;;;;0.97;0.87;;;21.80;82.00;;;;;;5075238;28;20412;-70
2022/10/26 11:36:06;;;;;;;0.60;0.60;;;21.70;87.30;;;;;;5075221;28;20404;-71
2022/10/26 11:39:02;;;;;;;0.80;0.80;;;21.30;92.60;;;;;;5075215;28;20738;-70
2022/10/26 11:41:54;;;;;;;0.53;0.53;;;21.50;79.60;;;;;;5057539;28;20920;-71
2022/10/26 11:44:20;;;;;;;0.60;0.60;;;21.60;81.70;;;;;;5074384;28;20424;-72
2022/10/26 11:46:52;;;;;;;1.37;1.27;;;21.60;83.40;;;;;;5074940;28;20502;-71
2022/10/26 11:49:42;;;;;;;0.80;0.80;;;21.30;78.50;;;;;;5074608;28;20276;-72
2022/10/26 11:52:26;;;;;;;1.40;0.50;;;21.20;87.10;;;;;;5074731;28;20889;-70
2022/10/26 11:54:59;;;;;;;0.50;0.50;;;21.10;86.10;;;;;;5074995;28;20437;-70
2022/10/26 11:57:27;;;;;;;1.03;0.57;;;21.10;85.20;;;;;;5074885;28;20495;-69
2022/10/26 12:00:28;;;;;;;0.40;0.40;;;21.20;82.60;;;;;;5074575;28;20508;-69
2022/10/26 12:03:07;;;;;;;0.40;0.40;;;21.30;83.20;;;;;;5053175;28;20436;-70
2022/10/26 12:05:44;;;;;;;0.40;0.40;;;21.30;82.40;;;;;;5073993;28;20407;-71
2022/10/26 12:08:14;;;;;;;0.40;0.40;;;21.20;81.30;;;;;;5073229;28;20931;-71
2022/10/26 12:10:47;;;;;;;0.70;0.57;;;21.20;81.10;;;;;;5074123;28;20943;-71
2022/10/26 12:13:26;;;;;;;1.63;0.93;;;21.20;82.00;;;;;;5074385;28;20435;-71
2022/10/26 12:16:18;;;;;;;0.57;0.53;;;21.20;83.10;;;;;;5074524;28;20755;-70
2022/10/26 12:18:50;;;;;;;0.90;0.50;;;21.40;82.80;;;;;;5036678;28;20444;-71
2022/10/26 12:21:17;;;;;;;0.47;0.40;;;21.60;83.80;;;;;;5074572;28;20438;-72
2022/10/26 12:24:20;;;;;;;0.63;0.63;;;21.70;81.20;;;;;;5074272;28;20416;-69
2022/10/26 12:26:59;;;;;;;0.53;0.53;;;21.70;84.60;;;;;;5058372;28;20443;-70
2022/10/26 12:29:35;;;;;;;0.50;0.40;;;21.50;87.80;;;;;;5074001;28;20446;-71
2022/10/26 12:32:02;;;;;;;1.33;0.60;;;20.90;83.70;;;;;;5073878;28;20868;-69
2022/10/26 12:34:31;;;;;;;0.80;0.80;;;20.60;83.80;;;;;;5073927;28;20481;-69
2022/10/26 12:36:56;;;;;;;0.77;0.77;;;20.50;85.60;;;;;;5074054;28;20934;-72
2022/10/26 12:39:35;;;;;;;0.50;0.50;;;20.60;85.00;;;;;;5073893;28;20423;-71
2022/10/26 12:42:04;;;;;;;2.30;0.77;;;20.60;86.80;;;;;;5073882;28;20179;-72
2022/10/26 12:44:36;;;;;;;0.80;0.80;;;20.60;85.00;;;;;;5073948;28;20791;-70
2022/10/26 12:47:05;;;;;;;0.70;0.70;;;20.60;87.20;;;;;;5073994;28;20411;-70
2022/10/26 12:49:59;;;;;;;0.50;0.50;;;20.50;89.30;;;;;;5073840;28;20423;-70
2022/10/26 12:52:30;;;;;;;2.87;1.80;;;20.30;89.30;;;;;;5073830;28;20777;-72
2022/10/26 12:55:11;;;;;;;1.33;1.23;;;20.10;88.90;;;;;;5073718;28;20756;-69
2022/10/26 12:57:44;;;;;;;0.30;0.30;;;19.90;91.60;;;;;;5073807;28;20392;-70
2022/10/26 13:00:21;;;;;;;0.40;0.40;;;19.70;93.10;;;;;;5073445;28;20791;-70
2022/10/26 13:02:58;;;;;;;0.40;0.40;;;19.40;93.00;;;;;;5073892;28;20754;-72
2022/10/26 13:05:49;;;;;;;0.43;0.43;;;19.40;93.30;;;;;;5073718;28;20391;-70
2022/10/26 13:08:15;;;;;;;0.50;0.50;;;;;;;;;;5073681;28;20406;-71
2022/10/26 13:11:01;;;;;;;0.60;0.60;;;19.40;92.50;;;;;;5073131;28;20465;-70
2022/10/26 13:13:30;;;;;;;0.60;0.57;;;19.50;93.50;;;;;;5073739;28;20410;-69